Huvudsida
METAR-TAF:

METAR-TAF

Flygplatser :

Tallinns internationella flygplats

Tallinn, Estland

latitud: 59-23N, longitud: 024-35E, höjd: 44 m

Aktuellt väderrapport

Denna rapport gjordes för 50 minuter sedan, klockan 17:20 UTC
Vind 10 kt från ost
Temperatur 19°C
Fuktighet 32%
Tryck 1023 hPa
Sikt 10 km eller mer
Inga moln under 1 500 m eller inga cumulonimbus

METAR: EETN 221720Z 08010KT CAVOK 19/02 Q1023 NOSIG

Tid: 21:10 (18:10 UTC)

Väderprognos

Denna rapport gjordes för 40 minuter sedan, klockan 17:30 UTC
Prognos gäller från 22 kl. 18 UTC till 23 kl. 18 UTC
Vind 10 kt från ost
Sikt 10 km eller mer
Inga moln under 1 500 m eller inga cumulonimbus

TAF: EETN 221730Z 2218/2318 10010KT CAVOK

Aktuella väderrapporter och prognoser från 4000 flygplatser (METAR- och TAF-rapporter).

De tillgängliga stationerna syns som gula och röda prickar på kartan.

För musen över prickarna för att se namnen på stationerna.

Klicka sedan för att få väderrapporter och prognoser.

För att ändra kartan: Klicka på de gröna knapparna med ett svart kors på för att zooma in; den gröna knappen med ett streck på för att zooma ut; eller på de gröna pilarna för angränsande kartor.


METAR-TAF: